Time;durP1;ratioP1;P1;durP2;ratioP2;P2;SDS_P1;SDS_P2;PMS_P1;PMS_P2;Temp;Humidity;BMP_temperature;BMP_pressure;BME280_temperature;BME280_humidity;BME280_pressure;Samples;Min_cycle;Max_cycle;Signal;HPM_P1;HPM_P2
2024/01/07 00:01:02;;;;;;;6.70;3.23;;;13.30;66.80;;;;;;4593880;19;20369;-70
2024/01/07 00:02:56;;;;;;;6.87;3.10;;;13.30;66.70;;;;;;4595288;19;20475;-71
2024/01/07 00:04:30;;;;;;;5.93;3.63;;;13.30;66.90;;;;;;4595322;19;20450;-71
2024/01/07 00:06:05;;;;;;;7.17;3.97;;;13.20;66.90;;;;;;4593502;19;20519;-71
2024/01/07 00:07:41;;;;;;;7.83;4.07;;;13.20;66.90;;;;;;4595422;19;20341;-71
2024/01/07 00:09:16;;;;;;;7.90;3.77;;;13.20;66.90;;;;;;4595514;19;20393;-71
2024/01/07 00:10:51;;;;;;;6.40;3.40;;;13.20;67.00;;;;;;4593980;19;20473;-71
2024/01/07 00:12:25;;;;;;;5.97;4.00;;;13.20;66.90;;;;;;4595156;19;20009;-70
2024/01/07 00:13:59;;;;;;;7.90;4.30;;;13.30;66.80;;;;;;4595433;19;20393;-71
2024/01/07 00:15:35;;;;;;;6.87;3.87;;;13.20;66.70;;;;;;4594801;19;20791;-71
2024/01/07 00:17:09;;;;;;;7.93;4.43;;;13.20;66.70;;;;;;4595385;19;20895;-71
2024/01/07 00:18:43;;;;;;;5.37;3.40;;;13.20;66.80;;;;;;4595125;19;20397;-70
2024/01/07 00:20:18;;;;;;;6.70;4.20;;;13.20;66.60;;;;;;4595363;19;19999;-71
2024/01/07 00:21:52;;;;;;;6.97;3.93;;;13.20;66.70;;;;;;4595281;19;20694;-70
2024/01/07 00:23:26;;;;;;;6.87;4.37;;;13.20;66.60;;;;;;4595075;19;20009;-70
2024/01/07 00:25:01;;;;;;;6.67;3.97;;;13.20;66.60;;;;;;4594788;19;20397;-71
2024/01/07 00:26:35;;;;;;;7.43;4.10;;;13.20;66.50;;;;;;4594884;19;20978;-71
2024/01/07 00:28:09;;;;;;;6.43;3.97;;;13.20;66.50;;;;;;4595159;19;20388;-71
2024/01/07 00:29:45;;;;;;;7.37;4.03;;;13.20;66.80;;;;;;4594956;19;20695;-70
2024/01/07 00:31:19;;;;;;;9.10;4.47;;;13.20;66.80;;;;;;4595077;19;20400;-71
2024/01/07 00:32:52;;;;;;;8.10;4.60;;;13.20;66.70;;;;;;4595111;19;20393;-71
2024/01/07 00:34:27;;;;;;;8.40;4.77;;;13.20;68.00;;;;;;4594847;19;20393;-70
2024/01/07 00:36:02;;;;;;;8.00;4.13;;;13.20;68.70;;;;;;4593619;19;20505;-70
2024/01/07 00:37:36;;;;;;;7.63;3.87;;;13.20;69.00;;;;;;4594713;19;20528;-70
2024/01/07 00:39:12;;;;;;;8.47;5.00;;;13.20;69.10;;;;;;4594768;19;20945;-70
2024/01/07 00:40:46;;;;;;;7.83;4.13;;;13.20;68.50;;;;;;4593233;19;20429;-70
2024/01/07 00:42:19;;;;;;;7.67;3.87;;;13.20;68.10;;;;;;4594310;19;20401;-71
2024/01/07 00:43:56;;;;;;;9.27;4.80;;;13.20;67.90;;;;;;4594980;19;20723;-71
2024/01/07 00:45:30;;;;;;;9.73;5.00;;;13.20;68.00;;;;;;4593518;19;20767;-71
2024/01/07 00:47:04;;;;;;;8.83;4.37;;;13.20;67.40;;;;;;4594771;19;20066;-71
2024/01/07 00:48:40;;;;;;;9.23;5.47;;;13.20;67.30;;;;;;4594557;19;20417;-71
2024/01/07 00:50:13;;;;;;;8.03;4.67;;;13.20;67.30;;;;;;4594463;19;20427;-71
2024/01/07 00:51:47;;;;;;;8.23;5.10;;;13.10;67.20;;;;;;4594713;19;20738;-71
2024/01/07 00:53:23;;;;;;;8.93;5.33;;;13.10;67.20;;;;;;4594368;19;20449;-71
2024/01/07 00:54:57;;;;;;;8.63;5.17;;;13.10;67.40;;;;;;4594670;19;20393;-71
2024/01/07 00:56:31;;;;;;;8.97;5.23;;;13.10;67.20;;;;;;4593119;19;20559;-71
2024/01/07 00:58:07;;;;;;;8.90;5.20;;;13.10;67.10;;;;;;4594400;19;20408;-71
2024/01/07 00:59:41;;;;;;;9.27;5.43;;;13.10;66.90;;;;;;4594207;19;20444;-71
2024/01/07 01:14:48;;;;;;;9.63;6.00;;;13.10;66.30;;;;;;4564148;19;20527;-70
2024/01/07 01:16:24;;;;;;;11.77;7.50;;;13.10;66.30;;;;;;4593832;19;20448;-70
2024/01/07 01:17:58;;;;;;;11.97;7.60;;;13.10;66.20;;;;;;4593943;19;20905;-70
2024/01/07 01:19:32;;;;;;;11.90;7.77;;;13.10;66.40;;;;;;4594099;19;20393;-70
2024/01/07 01:21:07;;;;;;;11.80;7.60;;;13.10;66.50;;;;;;4593842;19;20435;-70
2024/01/07 01:22:41;;;;;;;9.43;5.30;;;13.10;66.20;;;;;;4594054;19;20709;-70
2024/01/07 01:24:15;;;;;;;8.03;4.97;;;13.20;66.00;;;;;;4593610;19;20389;-70
2024/01/07 01:25:50;;;;;;;9.50;5.03;;;13.10;65.90;;;;;;4592926;19;20461;-70
2024/01/07 01:27:25;;;;;;;7.97;5.30;;;13.10;65.60;;;;;;4594037;19;20674;-70
2024/01/07 01:28:59;;;;;;;9.87;5.97;;;13.10;65.50;;;;;;4593681;19;20428;-70
2024/01/07 01:30:35;;;;;;;9.13;5.13;;;13.10;65.50;;;;;;4594162;19;20500;-70
2024/01/07 01:32:09;;;;;;;9.50;5.30;;;13.10;65.60;;;;;;4593874;19;20409;-70
2024/01/07 01:33:43;;;;;;;10.60;6.50;;;13.10;65.40;;;;;;4593851;19;20405;-70
2024/01/07 01:35:18;;;;;;;9.73;5.87;;;13.10;65.10;;;;;;4592855;19;20433;-70
2024/01/07 01:36:52;;;;;;;10.00;5.90;;;13.10;65.30;;;;;;4593770;19;20428;-70
2024/01/07 01:38:26;;;;;;;6.73;4.20;;;13.10;65.30;;;;;;4593465;19;20417;-70
2024/01/07 01:40:01;;;;;;;8.33;4.70;;;13.10;65.10;;;;;;4593463;19;20455;-70
2024/01/07 01:41:35;;;;;;;8.00;5.10;;;13.20;65.10;;;;;;4593472;19;20415;-69
2024/01/07 01:43:09;;;;;;;7.73;4.40;;;13.10;64.80;;;;;;4593624;19;20408;-70
2024/01/07 01:44:45;;;;;;;8.80;5.23;;;13.10;64.40;;;;;;4593214;19;20540;-69
2024/01/07 01:46:19;;;;;;;8.53;5.67;;;13.20;64.50;;;;;;4593334;19;20440;-70
2024/01/07 01:47:53;;;;;;;8.70;5.53;;;13.10;64.40;;;;;;4593504;19;20408;-70
2024/01/07 01:49:31;;;;;;;8.33;4.77;;;13.10;64.60;;;;;;4593341;19;20400;-69
2024/01/07 01:51:05;;;;;;;8.93;5.57;;;13.20;64.70;;;;;;4591870;19;20408;-70
2024/01/07 01:52:39;;;;;;;8.00;5.10;;;13.10;64.50;;;;;;4591847;19;20397;-69
2024/01/07 01:54:14;;;;;;;7.83;5.70;;;13.10;64.60;;;;;;4592579;19;20477;-69
2024/01/07 01:55:49;;;;;;;8.77;5.23;;;13.10;64.70;;;;;;4593376;19;19998;-70
2024/01/07 01:57:23;;;;;;;6.73;4.30;;;13.10;64.80;;;;;;4593349;19;20503;-69
2024/01/07 01:59:00;;;;;;;7.13;4.73;;;13.20;64.50;;;;;;4593217;19;20412;-70
2024/01/07 02:00:34;;;;;;;8.17;4.97;;;13.10;64.50;;;;;;4591970;19;20409;-69
2024/01/07 02:02:08;;;;;;;10.87;5.87;;;13.20;64.60;;;;;;4592882;19;20444;-69
2024/01/07 02:03:44;;;;;;;7.80;5.30;;;13.10;64.60;;;;;;4592979;19;20393;-69
2024/01/07 02:05:18;;;;;;;8.47;5.03;;;13.10;64.70;;;;;;4592148;19;20730;-69
2024/01/07 02:06:52;;;;;;;9.27;4.57;;;13.10;64.50;;;;;;4592878;19;20427;-69
2024/01/07 02:08:27;;;;;;;8.03;5.30;;;13.10;64.40;;;;;;4593232;19;20681;-69
2024/01/07 02:10:03;;;;;;;9.50;4.83;;;13.10;64.60;;;;;;4592882;19;20006;-70
2024/01/07 02:11:37;;;;;;;8.83;5.30;;;13.10;64.90;;;;;;4592869;19;20421;-69
2024/01/07 02:13:12;;;;;;;8.27;4.53;;;13.10;64.70;;;;;;4592755;19;20409;-69
2024/01/07 02:14:46;;;;;;;8.10;5.33;;;13.10;64.50;;;;;;4591970;19;20473;-69
2024/01/07 02:16:20;;;;;;;7.73;4.67;;;13.10;64.40;;;;;;4592735;19;20928;-70
2024/01/07 02:18:07;;;;;;;8.27;5.53;;;13.10;64.40;;;;;;4593493;19;20290;-70
2024/01/07 02:19:41;;;;;;;7.50;5.13;;;13.20;64.30;;;;;;4592619;19;20443;-70
2024/01/07 02:21:16;;;;;;;7.97;5.37;;;13.10;64.20;;;;;;4592894;19;19999;-69
2024/01/07 02:22:51;;;;;;;8.57;5.80;;;13.10;64.30;;;;;;4592903;19;20791;-69
2024/01/07 02:24:26;;;;;;;7.27;4.63;;;13.10;64.40;;;;;;4591837;19;20980;-70
2024/01/07 02:26:01;;;;;;;8.97;6.00;;;13.10;64.10;;;;;;4591515;19;20935;-69
2024/01/07 02:27:37;;;;;;;7.07;4.60;;;13.10;64.20;;;;;;4592641;19;20345;-69
2024/01/07 02:29:12;;;;;;;7.77;4.80;;;13.10;64.20;;;;;;4592481;19;20967;-69
2024/01/07 02:30:47;;;;;;;9.83;6.20;;;13.10;64.40;;;;;;4592728;19;20435;-69
2024/01/07 02:32:22;;;;;;;10.23;6.47;;;13.10;64.40;;;;;;4592470;19;20377;-69
2024/01/07 02:33:56;;;;;;;10.37;6.60;;;13.10;64.20;;;;;;4592434;19;20393;-69
2024/01/07 02:35:30;;;;;;;11.10;7.47;;;13.10;64.30;;;;;;4591309;19;20006;-69
2024/01/07 02:37:05;;;;;;;9.87;5.80;;;13.10;64.80;;;;;;4592610;19;20404;-69
2024/01/07 02:38:39;;;;;;;9.83;6.63;;;13.10;64.20;;;;;;4592521;19;20397;-69
2024/01/07 02:40:13;;;;;;;10.07;6.10;;;13.10;64.30;;;;;;4592508;19;20401;-69
2024/01/07 02:41:49;;;;;;;10.57;7.07;;;13.10;64.40;;;;;;4592681;19;20389;-69
2024/01/07 02:43:23;;;;;;;12.00;7.27;;;13.10;64.40;;;;;;4590876;19;20404;-69
2024/01/07 02:44:58;;;;;;;7.83;4.90;;;13.00;64.10;;;;;;4591372;19;20449;-69
2024/01/07 02:46:33;;;;;;;10.27;7.00;;;13.10;64.30;;;;;;4592220;19;20941;-69
2024/01/07 02:48:07;;;;;;;9.50;5.77;;;13.10;64.20;;;;;;4592114;19;20385;-69
2024/01/07 02:49:42;;;;;;;10.73;7.33;;;13.10;64.40;;;;;;4591040;19;20440;-70
2024/01/07 02:51:18;;;;;;;11.03;7.90;;;13.10;64.20;;;;;;4591803;19;21006;-69
2024/01/07 02:52:54;;;;;;;9.23;6.47;;;13.10;64.30;;;;;;4592197;19;20412;-69
2024/01/07 02:54:28;;;;;;;8.47;5.80;;;13.10;64.20;;;;;;4591930;19;20443;-69
2024/01/07 02:56:04;;;;;;;7.97;5.50;;;13.10;64.10;;;;;;4592075;19;20456;-69
2024/01/07 02:57:39;;;;;;;7.80;5.33;;;13.10;64.00;;;;;;4592221;19;20753;-69
2024/01/07 02:59:13;;;;;;;7.30;4.93;;;13.10;63.90;;;;;;4592196;19;20389;-69
2024/01/07 03:00:48;;;;;;;8.30;5.30;;;13.10;64.10;;;;;;4592162;19;20385;-69
2024/01/07 03:02:22;;;;;;;8.13;4.60;;;13.00;63.90;;;;;;4592146;19;20393;-70
2024/01/07 03:03:56;;;;;;;7.67;5.30;;;13.10;64.10;;;;;;4591835;19;21018;-69
2024/01/07 03:05:32;;;;;;;9.03;5.67;;;13.10;64.10;;;;;;4590720;19;20445;-70
2024/01/07 03:07:07;;;;;;;8.97;4.90;;;13.10;64.70;;;;;;4591790;19;20443;-70
2024/01/07 03:08:42;;;;;;;12.40;7.40;;;13.10;64.00;;;;;;4591818;19;20922;-70
2024/01/07 03:10:17;;;;;;;9.20;6.00;;;13.10;63.90;;;;;;4590795;19;20385;-70
2024/01/07 03:11:52;;;;;;;12.63;7.90;;;13.10;63.90;;;;;;4591446;19;20938;-69
2024/01/07 03:13:26;;;;;;;8.50;5.60;;;13.00;63.90;;;;;;4591699;19;20779;-70
2024/01/07 03:15:01;;;;;;;8.80;5.27;;;13.10;63.90;;;;;;4590654;19;20741;-70
2024/01/07 03:16:35;;;;;;;8.10;5.23;;;13.00;63.90;;;;;;4591631;19;20487;-70
2024/01/07 03:18:09;;;;;;;7.63;5.03;;;13.00;63.80;;;;;;4591906;19;20503;-70
2024/01/07 03:19:45;;;;;;;10.37;6.93;;;13.00;63.80;;;;;;4591597;19;20401;-70
2024/01/07 03:21:20;;;;;;;8.07;5.33;;;13.00;63.70;;;;;;4590116;19;20522;-70
2024/01/07 03:22:55;;;;;;;7.57;5.10;;;13.10;63.80;;;;;;4591187;19;20393;-70
2024/01/07 03:24:32;;;;;;;8.90;5.53;;;13.10;63.80;;;;;;4591503;19;20404;-70
2024/01/07 03:26:06;;;;;;;8.87;5.13;;;13.10;63.70;;;;;;4590409;19;20409;-70
2024/01/07 03:27:40;;;;;;;10.57;5.97;;;13.00;63.70;;;;;;4591741;19;20690;-70
2024/01/07 03:29:17;;;;;;;7.87;5.30;;;13.00;63.60;;;;;;4591916;19;20436;-70
2024/01/07 03:30:51;;;;;;;7.47;4.60;;;13.10;63.90;;;;;;4591684;19;20529;-70
2024/01/07 03:32:26;;;;;;;8.07;5.07;;;13.00;63.90;;;;;;4591632;19;20401;-70
2024/01/07 03:34:01;;;;;;;18.93;10.77;;;13.00;63.70;;;;;;4591434;19;20377;-70
2024/01/07 03:35:36;;;;;;;6.80;4.97;;;13.00;63.70;;;;;;4590401;19;20734;-69
2024/01/07 03:37:10;;;;;;;10.57;6.57;;;13.00;63.60;;;;;;4595591;19;20419;-69
2024/01/07 03:38:46;;;;;;;17.23;9.27;;;13.00;63.50;;;;;;4596044;19;20408;-69
2024/01/07 03:40:20;;;;;;;10.77;6.37;;;13.00;63.40;;;;;;4596245;19;20007;-70
2024/01/07 03:41:58;;;;;;;11.87;7.70;;;13.00;63.50;;;;;;4596115;19;20451;-69
2024/01/07 03:43:34;;;;;;;9.87;6.73;;;13.10;63.60;;;;;;4595900;19;20496;-69
2024/01/07 03:45:09;;;;;;;6.53;4.63;;;13.10;63.40;;;;;;4594522;19;20453;-69
2024/01/07 03:46:43;;;;;;;11.57;7.23;;;13.00;63.30;;;;;;4595814;19;20401;-69
2024/01/07 03:48:19;;;;;;;13.87;8.43;;;13.00;63.40;;;;;;4595802;19;20468;-69
2024/01/07 03:49:53;;;;;;;9.70;5.70;;;13.10;63.30;;;;;;4595713;19;20562;-69
2024/01/07 03:51:28;;;;;;;7.37;4.47;;;13.00;63.00;;;;;;4596014;19;20404;-69
2024/01/07 03:53:03;;;;;;;21.10;11.50;;;13.00;63.00;;;;;;4595944;19;20405;-69
2024/01/07 03:54:39;;;;;;;54.73;25.50;;;13.00;63.30;;;;;;4595350;19;20414;-70
2024/01/07 03:56:13;;;;;;;35.93;18.97;;;13.00;63.20;;;;;;4595882;19;20520;-69
2024/01/07 03:57:48;;;;;;;8.60;5.40;;;13.10;63.20;;;;;;4595551;19;20389;-69
2024/01/07 03:59:24;;;;;;;10.17;6.60;;;13.00;62.80;;;;;;4595636;19;20373;-69
2024/01/07 04:00:59;;;;;;;14.93;8.57;;;13.00;62.80;;;;;;4595940;19;20695;-69
2024/01/07 04:02:34;;;;;;;8.57;6.07;;;13.10;62.90;;;;;;4595541;19;20385;-69
2024/01/07 04:04:09;;;;;;;25.67;13.87;;;13.00;62.50;;;;;;4595423;19;20728;-69
2024/01/07 04:05:45;;;;;;;20.17;11.10;;;13.10;62.60;;;;;;4594390;19;20475;-69
2024/01/07 04:07:19;;;;;;;14.47;7.83;;;13.10;63.00;;;;;;4595381;19;20412;-69
2024/01/07 04:08:55;;;;;;;9.33;5.67;;;13.00;63.10;;;;;;4595700;19;20381;-69
2024/01/07 04:10:29;;;;;;;11.33;6.87;;;13.00;64.40;;;;;;4595264;19;20476;-69
2024/01/07 04:12:04;;;;;;;10.97;7.30;;;13.00;64.80;;;;;;4593851;19;20011;-69
2024/01/07 04:13:39;;;;;;;11.90;7.80;;;13.00;64.80;;;;;;4594216;19;20006;-69
2024/01/07 04:15:13;;;;;;;17.87;11.13;;;13.00;64.50;;;;;;4593607;19;20014;-69
2024/01/07 04:16:47;;;;;;;9.23;6.47;;;13.00;64.10;;;;;;4595175;19;20388;-69
2024/01/07 04:18:23;;;;;;;21.23;14.20;;;13.00;64.40;;;;;;4595209;19;20399;-69
2024/01/07 04:19:58;;;;;;;19.33;12.63;;;13.00;63.50;;;;;;4595345;19;20010;-69
2024/01/07 04:21:33;;;;;;;12.07;8.43;;;13.00;63.80;;;;;;4595407;19;20306;-69
2024/01/07 04:23:09;;;;;;;10.80;6.63;;;13.00;63.10;;;;;;4595076;19;20407;-69
2024/01/07 04:24:43;;;;;;;10.67;5.97;;;13.00;62.80;;;;;;4594366;19;20525;-69
2024/01/07 04:26:17;;;;;;;11.07;7.30;;;13.00;63.20;;;;;;4592392;19;20409;-69
2024/01/07 04:27:52;;;;;;;15.30;10.07;;;13.00;63.00;;;;;;4595106;19;20380;-69
2024/01/07 04:29:27;;;;;;;17.03;10.77;;;13.00;62.60;;;;;;4594925;19;20393;-69
2024/01/07 04:31:01;;;;;;;9.10;6.57;;;13.00;62.60;;;;;;4594859;19;20930;-69
2024/01/07 04:32:37;;;;;;;9.53;6.30;;;13.00;62.50;;;;;;4595337;19;20442;-69
2024/01/07 04:34:11;;;;;;;13.30;9.60;;;13.00;62.40;;;;;;4594956;19;20437;-69
2024/01/07 04:35:46;;;;;;;9.00;6.03;;;12.90;62.30;;;;;;4594801;19;20401;-69
2024/01/07 04:37:22;;;;;;;6.60;4.60;;;13.00;62.40;;;;;;4595101;19;20410;-69
2024/01/07 04:38:57;;;;;;;6.30;4.33;;;13.00;62.20;;;;;;4594702;19;20413;-70
2024/01/07 04:40:31;;;;;;;6.77;4.50;;;13.00;62.10;;;;;;4594935;19;20762;-69
2024/01/07 04:42:06;;;;;;;6.70;4.20;;;13.00;62.00;;;;;;4595157;19;20405;-69
2024/01/07 04:43:40;;;;;;;6.37;4.40;;;13.00;61.90;;;;;;4594882;19;20915;-69
2024/01/07 04:45:15;;;;;;;6.27;4.10;;;13.00;61.60;;;;;;4593441;19;21029;-69
2024/01/07 04:46:50;;;;;;;6.03;4.17;;;13.00;61.90;;;;;;4593143;19;20369;-69
2024/01/07 04:48:24;;;;;;;6.47;4.67;;;13.00;61.80;;;;;;4594483;19;20934;-69
2024/01/07 04:49:59;;;;;;;6.67;4.27;;;13.00;61.60;;;;;;4593442;19;20685;-69
2024/01/07 04:51:36;;;;;;;6.40;4.60;;;12.90;61.50;;;;;;4594220;19;20709;-69
2024/01/07 04:53:10;;;;;;;7.53;4.97;;;13.00;61.60;;;;;;4594514;19;20911;-70
2024/01/07 04:54:45;;;;;;;6.80;4.27;;;13.00;61.60;;;;;;4594053;19;20013;-69
2024/01/07 04:56:20;;;;;;;7.33;5.30;;;13.00;61.30;;;;;;4594715;19;20386;-70
2024/01/07 04:57:54;;;;;;;7.90;4.77;;;13.00;61.30;;;;;;4594135;19;20006;-69
2024/01/07 04:59:29;;;;;;;8.30;4.70;;;13.00;61.30;;;;;;4594354;19;20009;-69
2024/01/07 05:01:05;;;;;;;7.23;4.70;;;13.00;61.30;;;;;;4594634;19;20476;-69
2024/01/07 05:02:39;;;;;;;6.47;4.67;;;13.00;61.30;;;;;;4594567;19;20393;-69
2024/01/07 05:04:13;;;;;;;7.80;4.80;;;13.00;61.10;;;;;;4594268;19;20456;-69
2024/01/07 05:05:49;;;;;;;7.50;5.00;;;13.00;61.20;;;;;;4593340;19;20384;-69
2024/01/07 05:07:23;;;;;;;7.37;4.97;;;13.00;60.80;;;;;;4594396;19;20418;-69
2024/01/07 05:08:57;;;;;;;7.97;5.17;;;13.00;60.90;;;;;;4594412;19;20421;-69
2024/01/07 05:10:34;;;;;;;7.13;4.70;;;13.00;61.00;;;;;;4594387;19;20385;-69
2024/01/07 05:12:08;;;;;;;7.23;5.33;;;13.00;60.80;;;;;;4594077;19;20393;-69
2024/01/07 05:13:42;;;;;;;5.87;4.30;;;13.00;61.00;;;;;;4594231;19;20431;-69
2024/01/07 05:15:18;;;;;;;7.23;4.93;;;13.00;61.20;;;;;;4592900;19;20517;-69
2024/01/07 05:16:53;;;;;;;6.00;4.43;;;13.00;60.60;;;;;;4594236;19;20437;-69
2024/01/07 05:18:27;;;;;;;7.83;5.53;;;13.00;60.80;;;;;;4594001;19;20369;-70
2024/01/07 05:20:03;;;;;;;5.40;4.47;;;13.00;60.80;;;;;;4594200;19;20994;-70
2024/01/07 05:21:37;;;;;;;5.80;4.13;;;13.00;60.80;;;;;;4594123;19;20400;-69
2024/01/07 05:23:11;;;;;;;6.77;4.90;;;12.90;60.80;;;;;;4593815;19;20437;-69
2024/01/07 05:24:47;;;;;;;6.83;5.23;;;13.00;60.90;;;;;;4593500;19;20409;-69
2024/01/07 05:26:21;;;;;;;6.93;4.90;;;13.00;60.60;;;;;;4592663;19;20412;-70
2024/01/07 05:27:56;;;;;;;6.33;4.80;;;13.00;60.70;;;;;;4593766;19;20431;-69
2024/01/07 05:29:33;;;;;;;8.43;4.63;;;13.00;60.40;;;;;;4594010;19;20396;-70
2024/01/07 05:31:18;;;;;;;7.93;4.77;;;13.00;61.00;;;;;;4593770;19;20372;-69
2024/01/07 05:32:52;;;;;;;7.27;4.60;;;12.90;60.80;;;;;;4592587;19;20476;-69
2024/01/07 05:34:28;;;;;;;7.30;4.67;;;12.90;60.70;;;;;;4592901;19;20515;-69
2024/01/07 05:36:04;;;;;;;7.00;4.70;;;12.90;60.70;;;;;;4593810;19;20397;-69
2024/01/07 05:37:38;;;;;;;6.53;4.37;;;12.90;60.50;;;;;;4593760;19;20401;-69
2024/01/07 05:39:14;;;;;;;7.67;5.33;;;12.90;60.80;;;;;;4593813;19;20681;-69
2024/01/07 05:40:49;;;;;;;6.47;4.90;;;12.90;60.00;;;;;;4593666;19;20964;-70
2024/01/07 05:42:24;;;;;;;7.33;4.87;;;12.90;59.90;;;;;;4593447;19;20484;-69
2024/01/07 05:43:59;;;;;;;7.00;4.73;;;12.90;59.90;;;;;;4593419;19;20407;-69
2024/01/07 05:45:34;;;;;;;7.80;5.13;;;12.80;60.10;;;;;;4592309;19;20453;-69
2024/01/07 05:47:08;;;;;;;7.93;4.87;;;12.90;60.00;;;;;;4593311;19;20405;-69
2024/01/07 05:48:47;;;;;;;7.50;5.17;;;12.90;60.20;;;;;;4593621;19;20673;-70
2024/01/07 05:50:23;;;;;;;6.50;5.10;;;12.80;60.00;;;;;;4592240;19;20365;-70
2024/01/07 05:51:58;;;;;;;7.43;4.87;;;12.80;60.30;;;;;;4592999;19;20451;-70
2024/01/07 05:53:33;;;;;;;7.23;5.17;;;12.80;60.20;;;;;;4593507;19;20990;-70
2024/01/07 05:55:08;;;;;;;7.90;5.13;;;12.80;60.40;;;;;;4592544;19;20789;-69
2024/01/07 05:56:42;;;;;;;6.63;5.00;;;12.80;59.90;;;;;;4593122;19;20389;-70
2024/01/07 05:58:17;;;;;;;8.37;5.70;;;12.90;60.00;;;;;;4590720;19;20397;-70
2024/01/07 05:59:51;;;;;;;7.60;5.57;;;12.90;59.90;;;;;;4592745;19;20487;-71
2024/01/07 06:01:25;;;;;;;6.53;4.63;;;13.00;59.80;;;;;;4593298;19;20408;-70
2024/01/07 06:03:00;;;;;;;7.73;5.37;;;13.00;59.80;;;;;;4593252;19;20911;-71
2024/01/07 06:04:35;;;;;;;7.73;5.30;;;13.00;59.60;;;;;;4592826;19;20445;-71
2024/01/07 06:06:09;;;;;;;6.57;5.07;;;13.10;59.40;;;;;;4592243;19;20413;-71
2024/01/07 06:07:45;;;;;;;7.57;5.70;;;13.10;59.50;;;;;;4592996;19;20740;-70
2024/01/07 06:09:19;;;;;;;7.13;5.33;;;13.10;59.40;;;;;;4592890;19;20389;-70
2024/01/07 06:10:53;;;;;;;9.50;6.83;;;13.10;59.40;;;;;;4593054;19;20393;-70
2024/01/07 06:12:29;;;;;;;8.57;5.83;;;13.10;59.30;;;;;;4593134;19;20365;-70
2024/01/07 06:14:02;;;;;;;9.67;5.60;;;13.20;59.20;;;;;;4592753;19;20788;-70
2024/01/07 06:15:37;;;;;;;10.33;6.40;;;13.10;59.10;;;;;;4591413;19;20537;-70
2024/01/07 06:17:12;;;;;;;9.33;6.47;;;13.20;59.20;;;;;;4592724;19;20718;-70
2024/01/07 06:18:48;;;;;;;8.40;5.97;;;13.10;59.00;;;;;;4591640;19;20409;-70
2024/01/07 06:20:24;;;;;;;8.43;6.50;;;13.10;59.40;;;;;;4592271;19;20409;-70
2024/01/07 06:21:59;;;;;;;7.67;5.73;;;13.10;59.60;;;;;;4592711;19;20369;-71
2024/01/07 06:23:37;;;;;;;9.83;6.23;;;13.20;59.40;;;;;;4592584;19;20389;-70
2024/01/07 06:25:11;;;;;;;8.13;6.53;;;13.20;59.40;;;;;;4591646;19;20448;-70
2024/01/07 06:26:46;;;;;;;8.40;5.93;;;13.10;59.10;;;;;;4592559;19;20665;-70
2024/01/07 06:28:20;;;;;;;9.10;6.30;;;13.10;59.10;;;;;;4592503;19;20405;-73
2024/01/07 06:29:55;;;;;;;7.50;5.87;;;13.10;59.10;;;;;;4592675;19;20412;-71
2024/01/07 06:31:30;;;;;;;8.13;6.13;;;13.10;59.10;;;;;;4592544;19;20408;-71
2024/01/07 06:33:05;;;;;;;8.60;6.10;;;13.10;59.30;;;;;;4591055;19;20998;-70
2024/01/07 06:34:40;;;;;;;8.33;5.87;;;13.10;59.10;;;;;;4591897;19;20532;-71
2024/01/07 06:36:16;;;;;;;8.60;6.43;;;13.00;59.40;;;;;;4592398;19;20697;-71
2024/01/07 06:37:50;;;;;;;9.53;7.30;;;13.00;59.20;;;;;;4592584;19;20958;-71
2024/01/07 06:39:26;;;;;;;9.57;7.67;;;13.00;59.40;;;;;;4592279;19;20397;-70
2024/01/07 06:41:04;;;;;;;9.30;6.97;;;13.00;59.40;;;;;;4592600;19;20369;-70
2024/01/07 06:42:38;;;;;;;9.10;7.60;;;13.10;59.50;;;;;;4592540;19;20447;-70
2024/01/07 06:44:13;;;;;;;10.53;8.33;;;13.00;59.40;;;;;;4592362;19;20943;-70
2024/01/07 06:45:48;;;;;;;12.17;8.87;;;13.00;59.40;;;;;;4591548;19;20397;-70
2024/01/07 06:47:22;;;;;;;11.40;7.67;;;13.10;59.40;;;;;;4592380;19;20431;-70
2024/01/07 06:48:56;;;;;;;10.87;7.97;;;13.00;60.00;;;;;;4592150;19;20388;-70
2024/01/07 06:50:32;;;;;;;10.97;8.00;;;13.00;59.20;;;;;;4592348;19;20906;-70
2024/01/07 06:52:06;;;;;;;10.63;8.03;;;13.10;59.70;;;;;;4592381;19;20419;-69
2024/01/07 06:53:42;;;;;;;8.10;6.67;;;13.00;59.50;;;;;;4592041;19;20922;-70
2024/01/07 06:55:18;;;;;;;10.83;8.70;;;13.00;59.50;;;;;;4591154;19;20433;-70
2024/01/07 06:56:52;;;;;;;11.60;8.83;;;13.00;59.60;;;;;;4592245;19;20427;-70
2024/01/07 06:58:27;;;;;;;11.27;8.60;;;13.00;59.50;;;;;;4592191;19;20438;-70
2024/01/07 07:00:02;;;;;;;10.67;7.70;;;13.10;59.30;;;;;;4592051;19;20369;-70
2024/01/07 07:01:36;;;;;;;12.87;9.23;;;13.00;59.10;;;;;;4591916;19;20385;-70
2024/01/07 07:03:11;;;;;;;11.57;8.70;;;13.00;58.70;;;;;;4591897;19;20970;-70
2024/01/07 07:04:46;;;;;;;12.57;8.50;;;13.00;58.70;;;;;;4591350;19;20455;-70
2024/01/07 07:06:22;;;;;;;9.50;7.43;;;13.00;58.80;;;;;;4590770;19;20464;-70
2024/01/07 07:07:57;;;;;;;9.47;7.20;;;13.00;59.00;;;;;;4591812;19;20404;-70
2024/01/07 07:09:34;;;;;;;9.50;7.30;;;13.00;59.00;;;;;;4592109;19;20752;-70
2024/01/07 07:11:08;;;;;;;9.17;7.10;;;13.00;58.70;;;;;;4595340;19;20439;-70
2024/01/07 07:12:42;;;;;;;10.43;7.80;;;13.00;58.70;;;;;;4596769;19;20389;-70
2024/01/07 07:14:18;;;;;;;10.43;7.87;;;13.10;58.80;;;;;;4596486;19;20405;-70
2024/01/07 07:15:52;;;;;;;10.83;8.27;;;13.00;58.60;;;;;;4596388;19;20433;-70
2024/01/07 07:17:26;;;;;;;11.70;8.60;;;13.00;58.90;;;;;;4596667;19;20713;-70
2024/01/07 07:19:02;;;;;;;10.93;7.93;;;13.00;58.70;;;;;;4596464;19;20378;-70
2024/01/07 07:20:37;;;;;;;11.43;8.93;;;13.00;58.60;;;;;;4596608;19;20393;-70
2024/01/07 07:22:11;;;;;;;9.50;8.30;;;13.00;58.60;;;;;;4595016;19;20445;-70
2024/01/07 07:23:47;;;;;;;10.77;8.40;;;13.00;58.60;;;;;;4596308;19;20429;-70
2024/01/07 07:25:21;;;;;;;9.97;7.93;;;13.00;58.40;;;;;;4594681;19;20488;-70
2024/01/07 07:26:56;;;;;;;12.33;8.60;;;13.10;58.50;;;;;;4596193;19;20444;-70
2024/01/07 07:28:32;;;;;;;11.77;9.07;;;13.10;58.60;;;;;;4596234;19;20414;-70
2024/01/07 07:30:06;;;;;;;9.73;8.07;;;13.20;58.70;;;;;;4596108;19;20388;-70
2024/01/07 07:31:41;;;;;;;13.10;8.87;;;13.30;58.70;;;;;;4594794;19;20408;-70
2024/01/07 07:33:16;;;;;;;14.10;10.40;;;13.30;58.30;;;;;;4596039;19;20405;-70
2024/01/07 07:34:51;;;;;;;14.67;9.90;;;13.40;58.30;;;;;;4595179;19;20483;-71
2024/01/07 07:36:24;;;;;;;13.23;9.43;;;13.50;58.10;;;;;;4596013;19;20385;-70
2024/01/07 07:38:00;;;;;;;13.93;9.97;;;13.50;58.10;;;;;;4596240;19;20737;-70
2024/01/07 07:39:34;;;;;;;11.33;9.07;;;13.60;58.10;;;;;;4595826;19;20421;-70
2024/01/07 07:41:07;;;;;;;12.40;8.97;;;13.70;57.90;;;;;;4596119;19;20460;-70
2024/01/07 07:42:43;;;;;;;11.27;8.27;;;13.80;57.80;;;;;;4595924;19;20361;-70
2024/01/07 07:44:17;;;;;;;12.90;9.97;;;13.80;57.70;;;;;;4595546;19;20433;-71
2024/01/07 07:45:54;;;;;;;11.30;8.63;;;13.90;57.70;;;;;;4594784;19;20412;-70
2024/01/07 07:47:30;;;;;;;13.00;9.67;;;13.90;57.50;;;;;;4596262;19;20480;-70
2024/01/07 07:49:04;;;;;;;13.27;9.40;;;14.00;57.50;;;;;;4595986;19;20003;-70
2024/01/07 07:50:38;;;;;;;12.47;9.63;;;14.00;57.30;;;;;;4595724;19;20409;-72
2024/01/07 07:52:14;;;;;;;11.27;8.50;;;14.00;57.30;;;;;;4595688;19;20392;-71
2024/01/07 07:53:49;;;;;;;10.83;8.53;;;14.00;57.10;;;;;;4595657;19;21043;-71
2024/01/07 07:55:23;;;;;;;10.93;8.53;;;13.90;57.20;;;;;;4594372;19;20449;-71
2024/01/07 07:56:58;;;;;;;11.90;9.17;;;13.90;57.30;;;;;;4595621;19;20425;-71
2024/01/07 07:58:33;;;;;;;13.67;9.43;;;13.90;57.20;;;;;;4595566;19;20512;-69
2024/01/07 08:00:12;;;;;;;12.00;9.43;;;13.90;56.90;;;;;;4595851;19;20420;-69
2024/01/07 08:01:49;;;;;;;13.07;8.80;;;13.80;57.10;;;;;;4594512;19;21029;-70
2024/01/07 08:03:23;;;;;;;11.67;9.83;;;13.70;57.00;;;;;;4595340;19;20392;-70
2024/01/07 08:04:57;;;;;;;12.77;9.53;;;13.70;57.30;;;;;;4594483;19;20453;-70
2024/01/07 08:06:33;;;;;;;13.07;9.60;;;13.60;57.30;;;;;;4592506;19;20400;-70
2024/01/07 08:08:08;;;;;;;12.77;9.40;;;13.60;57.10;;;;;;4595077;19;20439;-70
2024/01/07 08:09:41;;;;;;;11.77;8.97;;;13.50;57.10;;;;;;4595582;19;20423;-70
2024/01/07 08:11:17;;;;;;;13.00;9.30;;;13.50;57.10;;;;;;4595236;19;20389;-70
2024/01/07 08:12:52;;;;;;;23.43;16.73;;;13.50;57.00;;;;;;4595591;19;20488;-70
2024/01/07 08:14:27;;;;;;;14.20;11.00;;;13.50;56.90;;;;;;4594509;19;20393;-70
2024/01/07 08:16:03;;;;;;;12.90;10.97;;;13.50;57.10;;;;;;4595515;19;20408;-70
2024/01/07 08:17:36;;;;;;;13.77;10.30;;;13.40;56.70;;;;;;4595374;19;20436;-70
2024/01/07 08:19:10;;;;;;;13.03;9.63;;;13.40;56.80;;;;;;4595087;19;20401;-70
2024/01/07 08:20:45;;;;;;;12.87;9.47;;;13.40;56.50;;;;;;4594879;19;20942;-71
2024/01/07 08:22:20;;;;;;;12.63;10.37;;;13.30;56.80;;;;;;4594297;19;20424;-70
2024/01/07 08:23:54;;;;;;;15.93;10.70;;;13.30;56.90;;;;;;4594985;19;20412;-70
2024/01/07 08:25:29;;;;;;;13.60;10.03;;;13.30;57.30;;;;;;4594087;19;20572;-70